Time,TemperatureF,DewpointF,PressureIn,WindDirection,WindDirectionDegrees,WindSpeedMPH,WindSpeedGustMPH,Humidity,HourlyPrecipIn,Conditions,Clouds,dailyrainin,SoftwareType,DateUTC
2013-03-12 00:00:00,36.7,29.8,29.66,SW,216,8.1,17.4,76,0.00,,---,0.00,VWS V14.01,2013-03-12 04:00:00,
2013-03-12 00:01:00,36.7,29.8,29.66,SW,218,5.4,12.5,76,0.00,,---,0.00,VWS V14.01,2013-03-12 04:01:00,
2013-03-12 00:06:00,36.7,30.2,29.66,South,186,16.6,16.6,77,0.00,,---,0.00,VWS V14.01,2013-03-12 04:06:00,
2013-03-12 00:11:00,36.7,30.2,29.69,SW,218,9.8,15.2,77,0.00,,---,0.00,VWS V14.01,2013-03-12 04:11:00,
2013-03-12 00:16:00,36.7,30.2,29.69,SW,228,6.3,15.2,77,0.00,,---,0.00,VWS V14.01,2013-03-12 04:16:00,
2013-03-12 00:21:00,36.7,30.2,29.69,WSW,240,10.7,16.6,77,0.00,,---,0.00,VWS V14.01,2013-03-12 04:21:00,
2013-03-12 00:26:00,36.7,30.2,29.69,WSW,238,8.1,16.6,77,0.00,,---,0.00,VWS V14.01,2013-03-12 04:26:00,
2013-03-12 00:31:00,36.7,30.5,29.69,WSW,245,7.2,10.7,78,0.00,,---,0.00,VWS V14.01,2013-03-12 04:31:00,
2013-03-12 00:36:00,36.7,30.2,29.69,SW,216,10.7,10.7,77,0.00,,---,0.00,VWS V14.01,2013-03-12 04:36:00,
2013-03-12 00:41:00,36.7,30.2,29.69,NW,308,11.6,11.6,77,0.00,,---,0.00,VWS V14.01,2013-03-12 04:41:00,
2013-03-12 00:46:00,36.7,30.5,29.69,SW,219,12.5,12.5,78,0.00,,---,0.00,VWS V14.01,2013-03-12 04:46:00,
2013-03-12 00:51:00,36.7,30.5,29.69,SSW,194,6.3,8.1,78,0.00,,---,0.00,VWS V14.01,2013-03-12 04:51:00,
2013-03-12 00:56:00,36.7,30.5,29.69,SW,231,9.8,10.7,78,0.00,,---,0.00,VWS V14.01,2013-03-12 04:56:00,
2013-03-12 01:02:00,36.7,30.5,29.69,SSW,206,11.6,11.6,78,0.00,,---,0.00,VWS V14.01,2013-03-12 05:02:00,
2013-03-12 01:07:00,36.7,30.5,29.69,WNW,288,12.5,16.1,78,0.00,,---,0.00,VWS V14.01,2013-03-12 05:07:00,
2013-03-12 01:12:00,36.7,30.5,29.69,West,278,6.3,11.6,78,0.00,,---,0.00,VWS V14.01,2013-03-12 05:12:00,
2013-03-12 01:17:00,36.7,30.2,29.69,South,171,16.1,17.4,77,0.00,,---,0.00,VWS V14.01,2013-03-12 05:17:00,
2013-03-12 01:22:00,36.7,30.2,29.69,SW,228,11.6,12.5,77,0.00,,---,0.00,VWS V14.01,2013-03-12 05:22:00,
2013-03-12 01:27:00,36.7,30.2,29.69,South,190,16.1,17.4,77,0.00,,---,0.00,VWS V14.01,2013-03-12 05:27:00,
2013-03-12 01:32:00,36.5,30.0,29.69,West,278,6.3,8.1,77,0.00,,---,0.00,VWS V14.01,2013-03-12 05:32:00,
2013-03-12 01:37:00,36.5,30.0,29.69,SSW,193,6.3,10.7,77,0.00,,---,0.00,VWS V14.01,2013-03-12 05:37:00,
2013-03-12 01:42:00,36.5,29.7,29.69,WSW,250,12.5,12.5,76,0.00,,---,0.00,VWS V14.01,2013-03-12 05:42:00,
2013-03-12 01:47:00,36.5,29.7,29.69,SW,218,8.1,11.6,76,0.00,,---,0.00,VWS V14.01,2013-03-12 05:47:00,
2013-03-12 01:52:00,36.5,29.7,29.69,West,262,16.1,16.1,76,0.00,,---,0.00,VWS V14.01,2013-03-12 05:52:00,
2013-03-12 01:57:00,36.3,29.5,29.69,West,259,11.6,11.6,76,0.00,,---,0.00,VWS V14.01,2013-03-12 05:57:00,
2013-03-12 02:03:00,36.3,29.5,29.69,WSW,251,15.2,24.6,76,0.00,,---,0.00,VWS V14.01,2013-03-12 06:03:00,
2013-03-12 02:08:00,36.3,29.5,29.69,West,259,7.2,10.7,76,0.00,,---,0.00,VWS V14.01,2013-03-12 06:08:00,
2013-03-12 02:13:00,36.3,29.5,29.69,South,180,7.2,16.1,76,0.00,,---,0.00,VWS V14.01,2013-03-12 06:13:00,
2013-03-12 02:18:00,36.3,29.5,29.69,SW,233,9.8,12.5,76,0.00,,---,0.00,VWS V14.01,2013-03-12 06:18:00,
2013-03-12 02:23:00,36.3,29.5,29.69,WSW,243,10.7,10.7,76,0.00,,---,0.00,VWS V14.01,2013-03-12 06:23:00,
2013-03-12 02:28:00,36.1,29.6,29.69,SSW,207,9.8,15.2,77,0.00,,---,0.00,VWS V14.01,2013-03-12 06:28:00,
2013-03-12 02:33:00,36.1,29.6,29.69,SW,230,13.4,13.4,77,0.00,,---,0.00,VWS V14.01,2013-03-12 06:33:00,
2013-03-12 02:38:00,36.0,29.5,29.72,WSW,247,10.7,11.6,77,0.00,,---,0.00,VWS V14.01,2013-03-12 06:38:00,
2013-03-12 02:43:00,36.0,29.5,29.72,WSW,253,10.7,10.7,77,0.00,,---,0.00,VWS V14.01,2013-03-12 06:43:00,
2013-03-12 02:48:00,36.0,29.5,29.72,South,185,5.4,9.8,77,0.00,,---,0.00,VWS V14.01,2013-03-12 06:48:00,
2013-03-12 02:53:00,35.8,29.6,29.72,SSW,206,12.5,16.1,78,0.00,,---,0.00,VWS V14.01,2013-03-12 06:53:00,
2013-03-12 02:58:00,35.8,29.6,29.72,SW,232,5.4,6.3,78,0.00,,---,0.00,VWS V14.01,2013-03-12 06:58:00,
2013-03-12 03:03:00,35.8,29.6,29.72,WSW,244,8.9,9.8,78,0.00,,---,0.00,VWS V14.01,2013-03-12 07:03:00,
2013-03-12 03:08:00,35.8,29.6,29.72,WSW,247,11.6,20.1,78,0.00,,---,0.00,VWS V14.01,2013-03-12 07:08:00,
2013-03-12 03:13:00,35.8,29.6,29.72,SW,220,20.1,20.1,78,0.00,,---,0.00,VWS V14.01,2013-03-12 07:13:00,
2013-03-12 03:18:00,35.8,29.6,29.72,NW,310,16.1,16.1,78,0.00,,---,0.00,VWS V14.01,2013-03-12 07:18:00,
2013-03-12 03:24:00,35.8,29.3,29.72,West,267,10.7,17.4,77,0.00,,---,0.00,VWS V14.01,2013-03-12 07:24:00,
2013-03-12 03:29:00,35.8,29.3,29.72,SW,235,6.3,7.2,77,0.00,,---,0.00,VWS V14.01,2013-03-12 07:29:00,
2013-03-12 03:34:00,35.6,28.8,29.72,WNW,286,8.1,16.1,76,0.00,,---,0.00,VWS V14.01,2013-03-12 07:34:00,
2013-03-12 03:39:00,35.6,28.8,29.72,West,267,12.5,17.4,76,0.00,,---,0.00,VWS V14.01,2013-03-12 07:39:00,
2013-03-12 03:44:00,35.4,28.6,29.72,SW,225,12.5,12.5,76,0.00,,---,0.00,VWS V14.01,2013-03-12 07:44:00,
2013-03-12 03:49:00,35.4,28.6,29.72,SW,236,10.7,16.1,76,0.00,,---,0.00,VWS V14.01,2013-03-12 07:49:00,
2013-03-12 03:54:00,35.2,28.5,29.72,West,271,17.4,17.4,76,0.00,,---,0.00,VWS V14.01,2013-03-12 07:54:00,
2013-03-12 03:59:00,35.2,28.5,29.72,SSW,193,19.2,19.2,76,0.00,,---,0.00,VWS V14.01,2013-03-12 07:59:00,
2013-03-12 04:04:00,35.1,28.3,29.72,SSW,212,6.3,8.1,76,0.00,,---,0.00,VWS V14.01,2013-03-12 08:04:00,
2013-03-12 04:09:00,35.1,28.3,29.72,WNW,283,7.2,9.8,76,0.00,,---,0.00,VWS V14.01,2013-03-12 08:09:00,
2013-03-12 04:14:00,35.1,28.3,29.72,WSW,251,8.1,11.6,76,0.00,,---,0.00,VWS V14.01,2013-03-12 08:14:00,
2013-03-12 04:20:00,35.1,28.6,29.72,West,272,8.1,12.5,77,0.00,,---,0.00,VWS V14.01,2013-03-12 08:20:00,
2013-03-12 04:25:00,34.9,28.4,29.72,WNW,291,5.4,11.6,77,0.00,,---,0.00,VWS V14.01,2013-03-12 08:25:00,
2013-03-12 04:30:00,34.9,28.4,29.72,SSW,202,15.2,20.1,77,0.00,,---,0.00,VWS V14.01,2013-03-12 08:30:00,
2013-03-12 04:35:00,34.9,28.4,29.72,West,274,17.4,17.4,77,0.00,,---,0.00,VWS V14.01,2013-03-12 08:35:00,
2013-03-12 04:40:00,34.7,28.2,29.72,SW,234,8.1,9.8,77,0.00,,---,0.00,VWS V14.01,2013-03-12 08:40:00,
2013-03-12 04:45:00,34.7,28.2,29.72,West,271,5.4,20.1,77,0.00,,---,0.00,VWS V14.01,2013-03-12 08:45:00,
2013-03-12 04:50:00,34.5,28.1,29.72,WNW,296,10.7,11.6,77,0.00,,---,0.00,VWS V14.01,2013-03-12 08:50:00,
2013-03-12 04:55:00,34.5,28.1,29.72,SW,218,9.8,12.5,77,0.00,,---,0.00,VWS V14.01,2013-03-12 08:55:00,
2013-03-12 05:00:00,34.5,28.1,29.72,West,275,4.5,5.4,77,0.00,,---,0.00,VWS V14.01,2013-03-12 09:00:00,
2013-03-12 05:05:00,34.5,28.1,29.72,WSW,247,12.5,12.5,77,0.00,,---,0.00,VWS V14.01,2013-03-12 09:05:00,
2013-03-12 05:10:00,34.5,28.1,29.72,WSW,252,8.1,16.1,77,0.00,,---,0.00,VWS V14.01,2013-03-12 09:10:00,
2013-03-12 05:15:00,34.3,27.9,29.72,SW,218,16.6,16.6,77,0.00,,---,0.00,VWS V14.01,2013-03-12 09:15:00,
2013-03-12 05:20:00,34.3,27.9,29.72,West,270,12.5,14.3,77,0.00,,---,0.00,VWS V14.01,2013-03-12 09:20:00,
2013-03-12 05:25:00,34.3,27.9,29.75,WSW,254,11.6,12.5,77,0.00,,---,0.00,VWS V14.01,2013-03-12 09:25:00,
2013-03-12 05:30:00,34.3,27.9,29.75,West,275,26.4,26.4,77,0.00,,---,0.00,VWS V14.01,2013-03-12 09:30:00,
2013-03-12 05:35:00,34.3,27.9,29.75,WSW,248,5.4,11.6,77,0.00,,---,0.00,VWS V14.01,2013-03-12 09:35:00,
2013-03-12 05:40:00,34.3,27.9,29.75,WNW,282,8.1,8.1,77,0.00,,---,0.00,VWS V14.01,2013-03-12 09:40:00,
2013-03-12 05:46:00,34.3,27.9,29.75,SW,219,8.1,11.6,77,0.00,,---,0.00,VWS V14.01,2013-03-12 09:46:00,
2013-03-12 05:51:00,34.3,27.9,29.75,WSW,251,10.7,11.6,77,0.00,,---,0.00,VWS V14.01,2013-03-12 09:51:00,
2013-03-12 05:56:00,34.3,27.9,29.75,SW,230,10.7,10.7,77,0.00,,---,0.00,VWS V14.01,2013-03-12 09:56:00,
2013-03-12 06:01:00,34.3,27.9,29.75,SSW,213,5.4,7.2,77,0.00,,---,0.00,VWS V14.01,2013-03-12 10:01:00,
2013-03-12 06:06:00,34.3,27.9,29.75,SSE,147,10.7,10.7,77,0.00,,---,0.00,VWS V14.01,2013-03-12 10:06:00,
2013-03-12 06:12:00,34.3,27.9,29.75,WNW,299,12.5,12.5,77,0.00,,---,0.00,VWS V14.01,2013-03-12 10:12:00,
2013-03-12 06:17:00,34.3,27.9,29.75,SW,227,8.1,8.1,77,0.00,,---,0.00,VWS V14.01,2013-03-12 10:17:00,
2013-03-12 06:22:00,34.3,27.6,29.75,South,170,7.2,7.2,76,0.00,,---,0.00,VWS V14.01,2013-03-12 10:22:00,
2013-03-12 06:27:00,34.3,27.6,29.75,SSW,211,10.7,10.7,76,0.00,,---,0.00,VWS V14.01,2013-03-12 10:27:00,
2013-03-12 06:32:00,34.3,27.6,29.75,SSW,194,10.7,10.7,76,0.00,,---,0.00,VWS V14.01,2013-03-12 10:32:00,
2013-03-12 06:37:00,34.3,27.6,29.75,SSW,204,6.3,6.3,76,0.00,,---,0.00,VWS V14.01,2013-03-12 10:37:00,
2013-03-12 06:42:00,34.3,27.6,29.75,SW,230,11.6,11.6,76,0.00,,---,0.00,VWS V14.01,2013-03-12 10:42:00,
2013-03-12 06:47:00,34.2,27.7,29.75,SW,223,9.8,9.8,77,0.00,,---,0.00,VWS V14.01,2013-03-12 10:47:00,
2013-03-12 06:52:00,34.2,27.7,29.75,SSW,213,8.1,8.1,77,0.00,,---,0.00,VWS V14.01,2013-03-12 10:52:00,
2013-03-12 06:57:00,34.2,27.7,29.75,SE,146,7.2,11.6,77,0.00,,---,0.00,VWS V14.01,2013-03-12 10:57:00,
2013-03-12 07:02:00,34.2,27.7,29.75,NW,316,5.4,7.2,77,0.00,,---,0.00,VWS V14.01,2013-03-12 11:02:00,
2013-03-12 07:08:00,34.2,27.7,29.78,WSW,247,10.7,16.1,77,0.00,,---,0.00,VWS V14.01,2013-03-12 11:08:00,
2013-03-12 07:12:00,34.0,27.5,29.78,SSW,198,11.6,11.6,77,0.00,,---,0.00,VWS V14.01,2013-03-12 11:12:00,
2013-03-12 07:18:00,34.0,27.5,29.78,SE,143,9.8,9.8,77,0.00,,---,0.00,VWS V14.01,2013-03-12 11:18:00,
2013-03-12 07:23:00,34.0,27.5,29.78,West,260,6.3,11.6,77,0.00,,---,0.00,VWS V14.01,2013-03-12 11:23:00,
2013-03-12 07:28:00,34.0,27.5,29.78,SSW,198,15.2,15.2,77,0.00,,---,0.00,VWS V14.01,2013-03-12 11:28:00,
2013-03-12 07:33:00,33.8,27.4,29.78,South,179,11.6,16.6,77,0.00,,---,0.00,VWS V14.01,2013-03-12 11:33:00,
2013-03-12 07:38:00,33.8,27.7,29.78,SW,235,16.6,16.6,78,0.00,,---,0.00,VWS V14.01,2013-03-12 11:38:00,
2013-03-12 07:43:00,33.6,27.5,29.78,West,264,7.2,9.8,78,0.00,,---,0.00,VWS V14.01,2013-03-12 11:43:00,
2013-03-12 07:48:00,33.6,27.8,29.78,NNW,336,5.4,7.2,79,0.00,,---,0.00,VWS V14.01,2013-03-12 11:48:00,
2013-03-12 07:53:00,33.6,27.8,29.78,SW,224,5.4,8.1,79,0.00,,---,0.00,VWS V14.01,2013-03-12 11:53:00,
2013-03-12 07:58:00,33.4,27.6,29.78,West,264,6.3,6.3,79,0.00,,---,0.00,VWS V14.01,2013-03-12 11:58:00,
2013-03-12 08:03:00,33.4,27.6,29.78,WSW,249,8.1,8.1,79,0.00,,---,0.00,VWS V14.01,2013-03-12 12:03:00,
2013-03-12 08:08:00,33.4,27.6,29.78,SW,235,10.7,20.1,79,0.00,,---,0.00,VWS V14.01,2013-03-12 12:08:00,
2013-03-12 08:13:00,33.4,27.6,29.78,SW,230,6.3,6.3,79,0.00,,---,0.00,VWS V14.01,2013-03-12 12:13:00,
2013-03-12 08:18:00,33.4,27.6,29.78,WNW,283,7.2,10.7,79,0.00,,---,0.00,VWS V14.01,2013-03-12 12:18:00,
2013-03-12 08:23:00,33.4,27.6,29.78,West,272,12.5,12.5,79,0.00,,---,0.00,VWS V14.01,2013-03-12 12:23:00,
2013-03-12 08:28:00,33.4,27.6,29.78,SW,218,9.8,9.8,79,0.00,,---,0.00,VWS V14.01,2013-03-12 12:28:00,
2013-03-12 08:33:00,33.4,27.3,29.78,West,277,10.7,15.2,78,0.00,,---,0.00,VWS V14.01,2013-03-12 12:33:00,
2013-03-12 08:39:00,33.4,27.3,29.78,SW,230,5.4,14.3,78,0.00,,---,0.00,VWS V14.01,2013-03-12 12:39:00,
2013-03-12 08:44:00,33.6,27.2,29.78,South,171,7.2,8.1,77,0.00,,---,0.00,VWS V14.01,2013-03-12 12:44:00,
2013-03-12 08:49:00,33.6,27.2,29.78,WSW,251,12.5,12.5,77,0.00,,---,0.00,VWS V14.01,2013-03-12 12:49:00,
2013-03-12 08:54:00,33.6,27.2,29.78,WSW,249,5.4,5.4,77,0.00,,---,0.00,VWS V14.01,2013-03-12 12:54:00,
2013-03-12 08:59:00,33.6,27.2,29.78,SSE,163,9.8,9.8,77,0.00,,---,0.00,VWS V14.01,2013-03-12 12:59:00,
2013-03-12 09:04:00,33.6,27.2,29.78,SSW,209,4.5,9.8,77,0.00,,---,0.00,VWS V14.01,2013-03-12 13:04:00,
2013-03-12 09:09:00,33.6,27.2,29.81,SW,233,12.5,16.1,77,0.00,,---,0.00,VWS V14.01,2013-03-12 13:09:00,
2013-03-12 09:14:00,33.4,27.0,29.81,SSW,198,7.2,7.2,77,0.00,,---,0.00,VWS V14.01,2013-03-12 13:14:00,
2013-03-12 09:19:00,33.3,26.8,29.81,WSW,250,7.2,7.2,77,0.00,,---,0.00,VWS V14.01,2013-03-12 13:19:00,
2013-03-12 09:24:00,33.3,26.8,29.81,SSE,165,0.0,5.4,77,0.00,,---,0.00,VWS V14.01,2013-03-12 13:24:00,
2013-03-12 09:29:00,33.3,27.1,29.81,SSW,193,5.4,13.4,78,0.00,,---,0.00,VWS V14.01,2013-03-12 13:29:00,
2013-03-12 09:34:00,33.3,27.1,29.81,SW,236,7.2,7.2,78,0.00,,---,0.00,VWS V14.01,2013-03-12 13:34:00,
2013-03-12 09:39:00,33.3,27.5,29.81,SW,218,12.5,12.5,79,0.00,,---,0.00,VWS V14.01,2013-03-12 13:39:00,
2013-03-12 09:44:00,33.3,27.5,29.81,SSW,197,12.5,12.5,79,0.00,,---,0.00,VWS V14.01,2013-03-12 13:44:00,
2013-03-12 09:49:00,33.3,27.5,29.81,SW,227,7.2,7.2,79,0.00,,---,0.00,VWS V14.01,2013-03-12 13:49:00,
2013-03-12 09:54:00,33.1,27.3,29.81,WSW,243,0.0,0.0,79,0.00,,---,0.00,VWS V14.01,2013-03-12 13:54:00,
2013-03-12 09:59:00,33.1,27.6,29.81,WSW,242,8.1,8.1,80,0.00,,---,0.00,VWS V14.01,2013-03-12 13:59:00,
2013-03-12 10:04:00,33.1,27.6,29.81,WNW,286,10.7,10.7,80,0.00,,---,0.00,VWS V14.01,2013-03-12 14:04:00,
2013-03-12 10:09:00,32.9,27.7,29.81,West,277,8.1,8.9,81,0.00,,---,0.00,VWS V14.01,2013-03-12 14:09:00,
2013-03-12 10:15:00,32.7,27.8,29.81,WSW,251,7.2,8.1,82,0.00,,---,0.00,VWS V14.01,2013-03-12 14:15:00,
2013-03-12 10:20:00,32.7,28.1,29.81,North,2,6.3,8.9,83,0.00,,---,0.00,VWS V14.01,2013-03-12 14:20:00,
2013-03-12 10:25:00,32.7,28.1,29.81,West,263,6.3,9.8,83,0.00,,---,0.00,VWS V14.01,2013-03-12 14:25:00,
2013-03-12 10:30:00,32.7,28.4,29.81,SW,225,7.2,9.8,84,0.00,,---,0.00,VWS V14.01,2013-03-12 14:30:00,
2013-03-12 10:35:00,32.7,28.4,29.81,SW,227,7.2,12.5,84,0.00,,---,0.00,VWS V14.01,2013-03-12 14:35:00,
2013-03-12 10:40:00,32.7,28.4,29.81,West,273,11.6,11.6,84,0.00,,---,0.00,VWS V14.01,2013-03-12 14:40:00,
2013-03-12 10:45:00,32.7,28.7,29.81,SW,233,8.1,8.1,85,0.00,,---,0.00,VWS V14.01,2013-03-12 14:45:00,
2013-03-12 10:50:00,32.7,28.7,29.81,WSW,238,6.3,11.6,85,0.00,,---,0.00,VWS V14.01,2013-03-12 14:50:00,
2013-03-12 10:55:00,32.7,28.7,29.81,SSE,155,5.4,5.4,85,0.00,,---,0.00,VWS V14.01,2013-03-12 14:55:00,
2013-03-12 11:00:00,32.9,29.2,29.81,SSW,211,5.4,11.6,86,0.00,,---,0.00,VWS V14.01,2013-03-12 15:00:00,
2013-03-12 11:05:00,33.1,29.4,29.81,NW,305,7.2,10.7,86,0.00,,---,0.00,VWS V14.01,2013-03-12 15:05:00,
2013-03-12 11:10:00,33.3,29.8,29.81,SW,225,0.0,0.0,87,0.00,,---,0.00,VWS V14.01,2013-03-12 15:10:00,
2013-03-12 11:15:00,33.4,30.0,29.81,SW,219,10.7,11.6,87,0.00,,---,0.00,VWS V14.01,2013-03-12 15:15:00,
2013-03-12 11:20:00,33.6,30.2,29.81,SW,234,7.2,7.2,87,0.00,,---,0.00,VWS V14.01,2013-03-12 15:20:00,
2013-03-12 11:25:00,33.6,29.9,29.81,SW,226,11.6,11.6,86,0.00,,---,0.00,VWS V14.01,2013-03-12 15:25:00,
2013-03-12 11:30:00,33.6,29.9,29.81,WSW,242,12.5,12.5,86,0.00,,---,0.00,VWS V14.01,2013-03-12 15:30:00,
2013-03-12 11:36:00,33.6,29.9,29.81,NW,323,8.1,12.5,86,0.00,,---,0.00,VWS V14.01,2013-03-12 15:36:00,
2013-03-12 11:41:00,33.8,29.8,29.81,SW,234,8.1,12.5,85,0.00,,---,0.00,VWS V14.01,2013-03-12 15:41:00,
2013-03-12 11:46:00,33.8,29.8,29.81,WSW,246,8.1,8.1,85,0.00,,---,0.00,VWS V14.01,2013-03-12 15:46:00,
2013-03-12 11:51:00,33.6,29.3,29.81,NW,309,5.4,12.5,84,0.00,,---,0.00,VWS V14.01,2013-03-12 15:51:00,
2013-03-12 11:56:00,33.4,29.1,29.81,West,281,10.7,12.5,84,0.00,,---,0.00,VWS V14.01,2013-03-12 15:56:00,
2013-03-12 12:01:00,33.1,28.5,29.81,NNW,337,16.1,16.1,83,0.00,,---,0.00,VWS V14.01,2013-03-12 16:01:00,
2013-03-12 12:06:00,32.7,28.1,29.81,NNW,332,10.7,10.7,83,0.00,,---,0.00,VWS V14.01,2013-03-12 16:06:00,
2013-03-12 12:11:00,32.7,28.1,29.84,WNW,292,10.7,12.5,83,0.00,,---,0.00,VWS V14.01,2013-03-12 16:11:00,
2013-03-12 12:17:00,32.5,28.2,29.84,NW,318,12.5,16.6,84,0.00,,---,0.00,VWS V14.01,2013-03-12 16:17:00,
2013-03-12 12:22:00,32.2,27.9,29.84,WSW,247,13.4,16.1,84,0.00,,---,0.00,VWS V14.01,2013-03-12 16:22:00,
2013-03-12 12:27:00,32.0,28.0,29.84,WNW,301,12.5,12.5,85,0.00,,---,0.00,VWS V14.01,2013-03-12 16:27:00,
2013-03-12 12:32:00,32.0,28.3,29.84,WSW,257,10.7,10.7,86,0.00,,---,0.00,VWS V14.01,2013-03-12 16:32:00,
2013-03-12 12:37:00,32.2,28.5,29.84,SW,234,8.1,11.6,86,0.00,,---,0.00,VWS V14.01,2013-03-12 16:37:00,
2013-03-12 12:42:00,32.5,29.1,29.84,WSW,244,9.8,9.8,87,0.00,,---,0.00,VWS V14.01,2013-03-12 16:42:00,
2013-03-12 12:47:00,32.7,29.3,29.84,WSW,255,11.6,11.6,87,0.00,,---,0.00,VWS V14.01,2013-03-12 16:47:00,
2013-03-12 12:52:00,33.1,29.6,29.84,SW,225,9.8,15.2,87,0.00,,---,0.00,VWS V14.01,2013-03-12 16:52:00,
2013-03-12 12:57:00,33.1,29.9,29.84,WNW,289,16.1,16.1,88,0.00,,---,0.00,VWS V14.01,2013-03-12 16:57:00,
2013-03-12 13:02:00,33.4,30.3,29.84,SSW,212,9.8,11.6,88,0.00,,---,0.00,VWS V14.01,2013-03-12 17:02:00,
2013-03-12 13:07:00,33.8,30.4,29.84,WNW,296,7.2,10.7,87,0.00,,---,0.00,VWS V14.01,2013-03-12 17:07:00,
2013-03-12 13:12:00,34.2,30.7,29.84,WNW,300,15.2,21.9,87,0.00,,---,0.00,VWS V14.01,2013-03-12 17:12:00,
2013-03-12 13:17:00,34.7,31.0,29.84,NW,308,7.2,10.7,86,0.00,,---,0.00,VWS V14.01,2013-03-12 17:17:00,
2013-03-12 13:22:00,35.4,31.7,29.84,WNW,286,13.4,17.4,86,0.00,,---,0.00,VWS V14.01,2013-03-12 17:22:00,
2013-03-12 13:27:00,35.6,31.2,29.84,SW,231,8.1,16.1,84,0.00,,---,0.00,VWS V14.01,2013-03-12 17:27:00,
2013-03-12 13:32:00,35.6,30.7,29.84,WSW,241,7.2,15.2,82,0.00,,---,0.00,VWS V14.01,2013-03-12 17:32:00,
2013-03-12 13:38:00,35.6,30.0,29.84,West,262,11.6,11.6,80,0.00,,---,0.00,VWS V14.01,2013-03-12 17:38:00,
2013-03-12 13:43:00,35.2,28.8,29.84,South,191,7.2,10.7,77,0.00,,---,0.00,VWS V14.01,2013-03-12 17:43:00,
2013-03-12 13:48:00,35.1,28.3,29.84,SW,226,5.4,15.2,76,0.00,,---,0.00,VWS V14.01,2013-03-12 17:48:00,
2013-03-12 13:53:00,34.9,28.1,29.84,West,269,10.7,10.7,76,0.00,,---,0.00,VWS V14.01,2013-03-12 17:53:00,
2013-03-12 13:58:00,34.9,28.1,29.84,South,173,10.7,21.0,76,0.00,,---,0.00,VWS V14.01,2013-03-12 17:58:00,
2013-03-12 14:03:00,34.7,27.9,29.84,SSW,211,5.4,11.6,76,0.00,,---,0.00,VWS V14.01,2013-03-12 18:03:00,
2013-03-12 14:08:00,34.9,28.1,29.84,SW,236,10.7,15.2,76,0.00,,---,0.00,VWS V14.01,2013-03-12 18:08:00,
2013-03-12 14:13:00,34.9,28.1,29.84,SW,229,12.5,15.2,76,0.00,,---,0.00,VWS V14.01,2013-03-12 18:13:00,
2013-03-12 14:18:00,34.9,28.1,29.84,South,178,5.4,10.7,76,0.00,,---,0.00,VWS V14.01,2013-03-12 18:18:00,
2013-03-12 14:23:00,34.9,27.8,29.84,SW,222,12.5,12.5,75,0.00,,---,0.00,VWS V14.01,2013-03-12 18:23:00,
2013-03-12 14:28:00,34.9,27.8,29.84,West,273,20.1,20.1,75,0.00,,---,0.00,VWS V14.01,2013-03-12 18:28:00,
2013-03-12 14:33:00,34.9,27.5,29.84,NW,319,8.1,8.1,74,0.00,,---,0.00,VWS V14.01,2013-03-12 18:33:00,
2013-03-12 14:38:00,34.7,27.0,29.84,SSW,212,10.7,16.1,73,0.00,,---,0.00,VWS V14.01,2013-03-12 18:38:00,
2013-03-12 14:43:00,34.3,26.6,29.84,NW,325,8.1,8.1,73,0.00,,---,0.00,VWS V14.01,2013-03-12 18:43:00,
2013-03-12 14:48:00,34.2,26.8,29.84,NW,308,15.2,16.1,74,0.00,,---,0.00,VWS V14.01,2013-03-12 18:48:00,
2013-03-12 14:53:00,34.0,26.6,29.84,SW,218,30.0,30.0,74,0.00,,---,0.00,VWS V14.01,2013-03-12 18:53:00,
2013-03-12 14:58:00,34.0,26.6,29.84,East,99,7.2,9.8,74,0.00,,---,0.00,VWS V14.01,2013-03-12 18:58:00,
2013-03-12 15:03:00,34.0,26.6,29.84,WSW,253,11.6,11.6,74,0.00,,---,0.00,VWS V14.01,2013-03-12 19:03:00,
2013-03-12 15:09:00,34.2,27.1,29.84,SSW,208,6.3,8.1,75,0.00,,---,0.00,VWS V14.01,2013-03-12 19:09:00,
2013-03-12 15:14:00,34.3,27.2,29.84,NNW,329,6.3,8.1,75,0.00,,---,0.00,VWS V14.01,2013-03-12 19:14:00,
2013-03-12 15:19:00,34.3,27.2,29.84,South,186,5.4,11.6,75,0.00,,---,0.00,VWS V14.01,2013-03-12 19:19:00,
2013-03-12 15:24:00,34.2,27.1,29.84,NW,317,5.4,12.5,75,0.00,,---,0.00,VWS V14.01,2013-03-12 19:24:00,
2013-03-12 15:29:00,34.2,27.4,29.84,West,274,9.8,15.2,76,0.00,,---,0.00,VWS V14.01,2013-03-12 19:29:00,
2013-03-12 15:34:00,34.0,26.9,29.84,SW,219,12.5,12.5,75,0.00,,---,0.00,VWS V14.01,2013-03-12 19:34:00,
2013-03-12 15:39:00,34.2,27.1,29.81,West,278,21.0,21.0,75,0.00,,---,0.00,VWS V14.01,2013-03-12 19:39:00,
2013-03-12 15:44:00,34.3,26.9,29.81,SW,231,10.7,10.7,74,0.00,,---,0.00,VWS V14.01,2013-03-12 19:44:00,
2013-03-12 15:49:00,34.5,26.8,29.81,WSW,256,10.7,16.1,73,0.00,,---,0.00,VWS V14.01,2013-03-12 19:49:00,
2013-03-12 15:55:00,34.9,26.5,29.84,SW,220,5.4,10.7,71,0.00,,---,0.00,VWS V14.01,2013-03-12 19:55:00,
2013-03-12 16:00:00,35.1,26.6,29.84,SW,235,6.3,8.1,71,0.00,,---,0.00,VWS V14.01,2013-03-12 20:00:00,
2013-03-12 16:05:00,35.1,25.9,29.84,WSW,243,10.7,12.5,69,0.00,,---,0.00,VWS V14.01,2013-03-12 20:05:00,
2013-03-12 16:10:00,34.9,25.4,29.84,SSW,194,4.5,5.4,68,0.00,,---,0.00,VWS V14.01,2013-03-12 20:10:00,
2013-03-12 16:15:00,34.7,24.9,29.84,West,277,11.6,12.5,67,0.00,,---,0.00,VWS V14.01,2013-03-12 20:15:00,
2013-03-12 16:20:00,34.5,24.7,29.84,WSW,258,8.1,8.1,67,0.00,,---,0.00,VWS V14.01,2013-03-12 20:20:00,
2013-03-12 16:25:00,34.3,24.9,29.84,WSW,253,8.1,10.7,68,0.00,,---,0.00,VWS V14.01,2013-03-12 20:25:00,
2013-03-12 16:30:00,34.3,24.9,29.84,NW,309,5.4,11.6,68,0.00,,---,0.00,VWS V14.01,2013-03-12 20:30:00,
2013-03-12 16:35:00,34.3,24.9,29.84,WNW,294,6.3,6.3,68,0.00,,---,0.00,VWS V14.01,2013-03-12 20:35:00,
2013-03-12 16:40:00,34.0,24.5,29.84,WNW,301,14.3,21.9,68,0.00,,---,0.00,VWS V14.01,2013-03-12 20:40:00,
2013-03-12 16:45:00,34.0,24.2,29.84,WSW,241,15.2,19.2,67,0.00,,---,0.00,VWS V14.01,2013-03-12 20:45:00,
2013-03-12 16:51:00,34.0,24.2,29.84,WSW,241,7.2,17.4,67,0.00,,---,0.00,VWS V14.01,2013-03-12 20:51:00,
2013-03-12 16:56:00,34.0,24.2,29.84,WSW,255,9.8,17.4,67,0.00,,---,0.00,VWS V14.01,2013-03-12 20:56:00,
2013-03-12 17:01:00,34.0,23.8,29.84,SSW,213,15.2,15.2,66,0.00,,---,0.00,VWS V14.01,2013-03-12 21:01:00,
2013-03-12 17:06:00,34.2,24.0,29.84,SW,219,5.4,6.3,66,0.00,,---,0.00,VWS V14.01,2013-03-12 21:06:00,
2013-03-12 17:11:00,34.2,24.0,29.84,NW,315,15.2,15.2,66,0.00,,---,0.00,VWS V14.01,2013-03-12 21:11:00,
2013-03-12 17:16:00,34.2,24.0,29.84,SW,222,7.2,7.2,66,0.00,,---,0.00,VWS V14.01,2013-03-12 21:16:00,
2013-03-12 17:21:00,34.3,23.8,29.84,SSW,210,6.3,9.8,65,0.00,,---,0.00,VWS V14.01,2013-03-12 21:21:00,
2013-03-12 17:26:00,34.0,23.1,29.84,South,184,16.6,16.6,64,0.00,,---,0.00,VWS V14.01,2013-03-12 21:26:00,
2013-03-12 17:31:00,34.0,23.5,29.84,West,263,6.3,21.0,65,0.00,,---,0.00,VWS V14.01,2013-03-12 21:31:00,
2013-03-12 17:36:00,33.8,23.3,29.84,SSE,167,7.2,8.1,65,0.00,,---,0.00,VWS V14.01,2013-03-12 21:36:00,
2013-03-12 17:42:00,33.8,23.3,29.84,SSW,211,10.7,11.6,65,0.00,,---,0.00,VWS V14.01,2013-03-12 21:42:00,
2013-03-12 17:47:00,33.6,23.1,29.84,SW,217,12.5,16.1,65,0.00,,---,0.00,VWS V14.01,2013-03-12 21:47:00,
2013-03-12 17:52:00,33.6,23.1,29.87,SW,223,8.1,12.5,65,0.00,,---,0.00,VWS V14.01,2013-03-12 21:52:00,
2013-03-12 17:57:00,33.6,23.1,29.87,WNW,283,11.6,18.3,65,0.00,,---,0.00,VWS V14.01,2013-03-12 21:57:00,
2013-03-12 18:02:00,33.6,23.1,29.87,SSW,209,10.7,14.3,65,0.00,,---,0.00,VWS V14.01,2013-03-12 22:02:00,
2013-03-12 18:07:00,33.6,22.8,29.87,SW,214,8.1,15.2,64,0.00,,---,0.00,VWS V14.01,2013-03-12 22:07:00,
2013-03-12 18:12:00,33.4,23.0,29.87,WNW,298,6.3,11.6,65,0.00,,---,0.00,VWS V14.01,2013-03-12 22:12:00,
2013-03-12 18:17:00,33.3,22.8,29.87,SW,233,0.0,24.6,65,0.00,,---,0.00,VWS V14.01,2013-03-12 22:17:00,
2013-03-12 18:22:00,33.1,23.3,29.87,SW,220,11.6,20.1,67,0.00,,---,0.00,VWS V14.01,2013-03-12 22:22:00,
2013-03-12 18:27:00,32.7,23.0,29.87,SW,221,8.1,8.1,67,0.00,,---,0.00,VWS V14.01,2013-03-12 22:27:00,
2013-03-12 18:32:00,32.7,23.3,29.87,SW,233,9.8,11.6,68,0.00,,---,0.00,VWS V14.01,2013-03-12 22:32:00,
2013-03-12 18:37:00,32.5,23.5,29.87,WSW,257,5.4,9.8,69,0.00,,---,0.00,VWS V14.01,2013-03-12 22:37:00,
2013-03-12 18:42:00,32.5,23.5,29.87,SSW,211,12.5,20.1,69,0.00,,---,0.00,VWS V14.01,2013-03-12 22:42:00,
2013-03-12 18:47:00,32.5,23.5,29.87,WNW,296,12.5,12.5,69,0.00,,---,0.00,VWS V14.01,2013-03-12 22:47:00,
2013-03-12 18:52:00,32.5,23.9,29.87,West,264,8.1,11.6,70,0.00,,---,0.00,VWS V14.01,2013-03-12 22:52:00,
2013-03-12 18:57:00,32.5,23.9,29.87,SW,217,11.6,11.6,70,0.00,,---,0.00,VWS V14.01,2013-03-12 22:57:00,
2013-03-12 19:03:00,32.5,23.9,29.87,SW,231,6.3,8.1,70,0.00,,---,0.00,VWS V14.01,2013-03-12 23:03:00,
2013-03-12 19:08:00,32.5,23.9,29.87,SW,231,8.1,10.7,70,0.00,,---,0.00,VWS V14.01,2013-03-12 23:08:00,
2013-03-12 19:13:00,32.5,23.9,29.87,SSW,213,9.8,10.7,70,0.00,,---,0.00,VWS V14.01,2013-03-12 23:13:00,
2013-03-12 19:18:00,32.4,23.7,29.87,WSW,240,20.1,20.1,70,0.00,,---,0.00,VWS V14.01,2013-03-12 23:18:00,
2013-03-12 19:23:00,32.2,23.5,29.87,South,181,5.4,8.1,70,0.00,,---,0.00,VWS V14.01,2013-03-12 23:23:00,
2013-03-12 19:28:00,32.0,23.7,29.87,WSW,240,7.2,9.8,71,0.00,,---,0.00,VWS V14.01,2013-03-12 23:28:00,
2013-03-12 19:33:00,31.6,23.7,29.87,WSW,257,8.9,8.9,72,0.00,,---,0.00,VWS V14.01,2013-03-12 23:33:00,
2013-03-12 19:38:00,31.5,23.5,29.87,West,260,7.2,12.5,72,0.00,,---,0.00,VWS V14.01,2013-03-12 23:38:00,
2013-03-12 19:43:00,31.5,23.8,29.87,SSW,208,9.8,11.6,73,0.00,,---,0.00,VWS V14.01,2013-03-12 23:43:00,
2013-03-12 19:48:00,31.3,23.6,29.87,West,269,0.0,0.0,73,0.00,,---,0.00,VWS V14.01,2013-03-12 23:48:00,
2013-03-12 19:53:00,31.3,23.6,29.87,WSW,242,0.0,4.5,73,0.00,,---,0.00,VWS V14.01,2013-03-12 23:53:00,
2013-03-12 19:58:00,31.1,23.8,29.87,SW,228,7.2,7.2,74,0.00,,---,0.00,VWS V14.01,2013-03-12 23:58:00,
2013-03-12 20:03:00,31.3,24.0,29.87,SW,227,6.3,11.6,74,0.00,,---,0.00,VWS V14.01,2013-03-13 00:03:00,
2013-03-12 20:08:00,31.1,24.1,29.87,WSW,238,10.7,13.4,75,0.00,,---,0.00,VWS V14.01,2013-03-13 00:08:00,
2013-03-12 20:13:00,31.1,24.4,29.87,SW,234,5.4,8.1,76,0.00,,---,0.00,VWS V14.01,2013-03-13 00:13:00,
2013-03-12 20:18:00,31.1,24.4,29.87,WNW,288,7.2,8.9,76,0.00,,---,0.00,VWS V14.01,2013-03-13 00:18:00,
2013-03-12 20:23:00,31.1,24.4,29.90,SW,225,7.2,10.7,76,0.00,,---,0.00,VWS V14.01,2013-03-13 00:23:00,
2013-03-12 20:28:00,31.1,24.8,29.90,West,270,6.3,6.3,77,0.00,,---,0.00,VWS V14.01,2013-03-13 00:28:00,
2013-03-12 20:33:00,30.9,24.9,29.90,West,278,0.0,8.1,78,0.00,,---,0.00,VWS V14.01,2013-03-13 00:33:00,
2013-03-12 20:38:00,30.9,24.9,29.90,WSW,237,7.2,11.6,78,0.00,,---,0.00,VWS V14.01,2013-03-13 00:38:00,
2013-03-12 20:44:00,30.7,24.7,29.90,SW,228,8.1,10.7,78,0.00,,---,0.00,VWS V14.01,2013-03-13 00:44:00,
2013-03-12 20:49:00,30.7,24.7,29.90,SSW,203,4.5,5.4,78,0.00,,---,0.00,VWS V14.01,2013-03-13 00:49:00,
2013-03-12 20:54:00,30.6,24.8,29.87,SSW,210,9.8,9.8,79,0.00,,---,0.00,VWS V14.01,2013-03-13 00:54:00,
2013-03-12 20:59:00,30.6,24.8,29.87,West,268,7.2,16.1,79,0.00,,---,0.00,VWS V14.01,2013-03-13 00:59:00,
2013-03-12 21:04:00,30.6,24.8,29.87,SW,226,0.0,0.0,79,0.00,,---,0.00,VWS V14.01,2013-03-13 01:04:00,
2013-03-12 21:09:00,30.4,24.7,29.90,West,268,11.6,11.6,79,0.00,,---,0.00,VWS V14.01,2013-03-13 01:09:00,
2013-03-12 21:14:00,30.4,24.7,29.90,SW,229,4.5,5.4,79,0.00,,---,0.00,VWS V14.01,2013-03-13 01:14:00,
2013-03-12 21:19:00,30.2,24.5,29.90,SW,234,5.4,7.2,79,0.00,,---,0.00,VWS V14.01,2013-03-13 01:19:00,
2013-03-12 21:24:00,30.0,24.3,29.90,SW,216,4.5,6.3,79,0.00,,---,0.00,VWS V14.01,2013-03-13 01:24:00,
2013-03-12 21:29:00,30.0,24.3,29.90,WSW,246,5.4,5.4,79,0.00,,---,0.00,VWS V14.01,2013-03-13 01:29:00,
2013-03-12 21:34:00,29.8,24.1,29.90,SSW,204,7.2,9.8,79,0.00,,---,0.00,VWS V14.01,2013-03-13 01:34:00,
2013-03-12 21:39:00,29.7,24.0,29.90,SW,217,7.2,9.8,79,0.00,,---,0.00,VWS V14.01,2013-03-13 01:39:00,
2013-03-12 21:44:00,29.7,24.0,29.90,SW,218,9.8,9.8,79,0.00,,---,0.00,VWS V14.01,2013-03-13 01:44:00,
2013-03-12 21:49:00,29.7,24.0,29.90,SW,215,4.5,4.5,79,0.00,,---,0.00,VWS V14.01,2013-03-13 01:49:00,
2013-03-12 21:54:00,29.5,23.8,29.90,SW,233,6.3,8.1,79,0.00,,---,0.00,VWS V14.01,2013-03-13 01:54:00,
2013-03-12 21:59:00,29.5,23.8,29.90,SSW,199,4.5,5.4,79,0.00,,---,0.00,VWS V14.01,2013-03-13 01:59:00,
2013-03-12 22:04:00,29.5,23.8,29.90,South,191,6.3,8.1,79,0.00,,---,0.00,VWS V14.01,2013-03-13 02:04:00,
2013-03-12 22:10:00,29.5,23.8,29.90,SW,224,10.7,11.6,79,0.00,,---,0.00,VWS V14.01,2013-03-13 02:10:00,
2013-03-12 22:15:00,29.5,23.8,29.90,SW,229,7.2,10.7,79,0.00,,---,0.00,VWS V14.01,2013-03-13 02:15:00,
2013-03-12 22:20:00,29.5,23.8,29.90,SW,225,9.8,12.5,79,0.00,,---,0.00,VWS V14.01,2013-03-13 02:20:00,
2013-03-12 22:25:00,29.5,23.8,29.90,SW,226,5.4,8.1,79,0.00,,---,0.00,VWS V14.01,2013-03-13 02:25:00,
2013-03-12 22:30:00,29.3,23.3,29.90,SW,215,6.3,6.3,78,0.00,,---,0.00,VWS V14.01,2013-03-13 02:30:00,
2013-03-12 22:35:00,29.1,23.1,29.90,SW,220,6.3,6.3,78,0.00,,---,0.00,VWS V14.01,2013-03-13 02:35:00,
2013-03-12 22:40:00,29.1,23.1,29.90,South,185,0.0,0.0,78,0.00,,---,0.00,VWS V14.01,2013-03-13 02:40:00,
2013-03-12 22:45:00,28.9,23.0,29.90,SW,222,5.4,6.3,78,0.00,,---,0.00,VWS V14.01,2013-03-13 02:45:00,
2013-03-12 22:50:00,28.9,23.0,29.90,SW,220,4.5,5.4,78,0.00,,---,0.00,VWS V14.01,2013-03-13 02:50:00,
2013-03-12 22:55:00,28.9,23.0,29.90,SW,220,5.4,6.3,78,0.00,,---,0.00,VWS V14.01,2013-03-13 02:55:00,
2013-03-12 23:00:00,28.9,23.0,29.90,SSE,149,6.3,6.3,78,0.00,,---,0.00,VWS V14.01,2013-03-13 03:00:00,
2013-03-12 23:05:00,29.1,23.1,29.90,SW,223,6.3,8.1,78,0.00,,---,0.00,VWS V14.01,2013-03-13 03:05:00,
2013-03-12 23:10:00,29.1,23.1,29.90,SSW,208,5.4,5.4,78,0.00,,---,0.00,VWS V14.01,2013-03-13 03:10:00,
2013-03-12 23:15:00,29.1,23.1,29.90,SSW,205,5.4,5.4,78,0.00,,---,0.00,VWS V14.01,2013-03-13 03:15:00,
2013-03-12 23:20:00,29.3,23.3,29.90,SSW,201,0.0,6.3,78,0.00,,---,0.00,VWS V14.01,2013-03-13 03:20:00,
2013-03-12 23:25:00,29.3,23.3,29.90,SSE,161,6.3,6.3,78,0.00,,---,0.00,VWS V14.01,2013-03-13 03:25:00,
2013-03-12 23:30:00,29.3,23.3,29.90,SSW,204,8.1,8.1,78,0.00,,---,0.00,VWS V14.01,2013-03-13 03:30:00,
2013-03-12 23:35:00,29.3,23.3,29.90,SSW,206,0.0,0.0,78,0.00,,---,0.00,VWS V14.01,2013-03-13 03:35:00,
2013-03-12 23:40:00,29.3,23.0,29.90,SSW,206,0.0,0.0,77,0.00,,---,0.00,VWS V14.01,2013-03-13 03:40:00,
2013-03-12 23:45:00,29.3,23.0,29.90,SSW,206,0.0,0.0,77,0.00,,---,0.00,VWS V14.01,2013-03-13 03:45:00,
2013-03-12 23:51:00,29.3,23.0,29.90,SSW,202,8.1,8.1,77,0.00,,---,0.00,VWS V14.01,2013-03-13 03:51:00,
2013-03-12 23:56:00,29.3,23.0,29.87,South,175,4.5,7.2,77,0.00,,---,0.00,VWS V14.01,2013-03-13 03:56:00,